createdAt,value
2023-05-27T00:01:33.378Z,57.68
2023-05-27T00:03:36.241Z,57.88
2023-05-27T00:05:39.026Z,58.15
2023-05-27T00:07:42.214Z,58.07
2023-05-27T00:09:44.956Z,57.91
2023-05-27T00:11:47.579Z,56.97
2023-05-27T00:13:51.536Z,56.58
2023-05-27T00:15:54.365Z,56.01
2023-05-27T00:17:57.202Z,55.50
2023-05-27T00:20:06.874Z,55.52
2023-05-27T00:22:09.559Z,56.14
2023-05-27T00:24:12.403Z,55.69
2023-05-27T00:26:15.569Z,55.39
2023-05-27T00:28:19.389Z,54.91
2023-05-27T00:30:23.388Z,54.83
2023-05-27T00:32:26.137Z,54.44
2023-05-27T00:34:28.794Z,54.52
2023-05-27T00:36:32.765Z,54.58
2023-05-27T00:38:36.497Z,54.38
2023-05-27T00:40:41.739Z,54.47
2023-05-27T00:42:44.460Z,54.32
2023-05-27T00:44:49.981Z,54.50
2023-05-27T00:46:54.199Z,54.98
2023-05-27T00:48:56.984Z,55.32
2023-05-27T00:50:59.719Z,55.67
2023-05-27T00:53:02.852Z,55.75
2023-05-27T00:55:06.310Z,56.20
2023-05-27T00:57:08.943Z,56.24
2023-05-27T00:59:11.715Z,56.47
2023-05-27T01:01:14.385Z,56.33
2023-05-27T01:03:18.802Z,55.64
2023-05-27T01:05:22.617Z,55.08
2023-05-27T01:07:36.422Z,54.79
2023-05-27T01:09:43.635Z,54.82
2023-05-27T01:11:53.211Z,54.29
2023-05-27T01:14:01.057Z,53.85
2023-05-27T01:16:07.772Z,53.29
2023-05-27T01:18:11.569Z,53.07
2023-05-27T01:20:16.812Z,53.07
2023-05-27T01:22:21.438Z,53.34
2023-05-27T01:24:25.406Z,54.33
2023-05-27T01:26:28.057Z,54.57
2023-05-27T01:28:30.843Z,54.56
2023-05-27T01:30:33.891Z,54.41
2023-05-27T01:32:42.313Z,54.80
2023-05-27T01:34:52.324Z,55.21
2023-05-27T01:37:00.771Z,55.28
2023-05-27T01:39:05.975Z,55.63
2023-05-27T01:41:11.751Z,55.61
2023-05-27T01:43:16.672Z,55.51
2023-05-27T01:45:19.459Z,55.99
2023-05-27T01:47:22.092Z,56.20
2023-05-27T01:49:24.720Z,56.62
2023-05-27T01:51:27.349Z,56.51
2023-05-27T01:53:30.044Z,56.44
2023-05-27T01:55:32.832Z,56.19
2023-05-27T01:57:36.843Z,56.07
2023-05-27T01:59:40.075Z,55.81
2023-05-27T02:01:43.163Z,55.88
2023-05-27T02:03:46.105Z,55.82
2023-05-27T02:05:48.754Z,56.51
2023-05-27T02:07:51.392Z,56.25
2023-05-27T02:09:54.060Z,56.67
2023-05-27T02:11:56.641Z,56.50
2023-05-27T02:14:02.275Z,56.08
2023-05-27T02:16:05.090Z,56.60
2023-05-27T02:18:07.754Z,57.06
2023-05-27T02:20:11.280Z,57.14
2023-05-27T02:22:14.000Z,57.66
2023-05-27T02:24:16.637Z,57.49
2023-05-27T02:26:19.494Z,57.47
2023-05-27T02:28:22.092Z,57.47
2023-05-27T02:30:26.108Z,57.52
2023-05-27T02:32:32.216Z,57.68
2023-05-27T02:34:38.070Z,57.68
2023-05-27T02:36:40.772Z,57.92
2023-05-27T02:38:43.370Z,57.74
2023-05-27T02:40:46.137Z,57.67
2023-05-27T02:42:48.741Z,58.10
2023-05-27T02:44:51.374Z,58.06
2023-05-27T02:46:55.347Z,57.80
2023-05-27T02:48:57.952Z,57.93
2023-05-27T02:51:00.571Z,57.61
2023-05-27T02:53:03.189Z,58.18
2023-05-27T02:55:07.093Z,57.79
2023-05-27T02:57:09.734Z,58.00
2023-05-27T02:59:12.320Z,58.26
2023-05-27T03:01:15.110Z,58.55
2023-05-27T03:03:19.339Z,58.75
2023-05-27T03:05:22.153Z,59.26
2023-05-27T03:07:24.799Z,59.16
2023-05-27T03:09:27.390Z,59.09
2023-05-27T03:11:30.003Z,59.13
2023-05-27T03:13:32.617Z,58.87
2023-05-27T03:15:36.308Z,58.91
2023-05-27T03:17:39.750Z,58.80
2023-05-27T03:19:44.354Z,59.24
2023-05-27T03:21:46.984Z,59.53
2023-05-27T03:23:49.611Z,59.50
2023-05-27T03:25:52.564Z,59.31
2023-05-27T03:27:55.287Z,59.13
2023-05-27T03:29:57.929Z,59.25
2023-05-27T03:32:00.969Z,59.11
2023-05-27T03:34:03.719Z,59.02
2023-05-27T03:36:09.306Z,58.90
2023-05-27T03:38:11.956Z,59.29
2023-05-27T03:40:14.636Z,59.32
2023-05-27T03:42:17.332Z,59.31
2023-05-27T03:44:19.946Z,59.55
2023-05-27T03:46:22.633Z,59.43
2023-05-27T03:48:25.403Z,59.61
2023-05-27T03:50:28.006Z,59.52
2023-05-27T03:52:32.028Z,59.61
2023-05-27T03:54:34.700Z,59.84
2023-05-27T03:56:37.332Z,59.58
2023-05-27T03:58:40.047Z,59.68
2023-05-27T04:00:42.877Z,59.94
2023-05-27T04:02:45.627Z,59.68
2023-05-27T04:04:48.316Z,59.64
2023-05-27T04:06:51.010Z,59.94
2023-05-27T04:08:55.026Z,60.05
2023-05-27T04:10:57.737Z,60.03
2023-05-27T04:13:00.384Z,59.92
2023-05-27T04:15:03.013Z,59.98
2023-05-27T04:17:05.649Z,59.92
2023-05-27T04:19:08.346Z,59.93
2023-05-27T04:21:11.016Z,59.74
2023-05-27T04:23:13.633Z,59.59
2023-05-27T04:25:17.648Z,59.34
2023-05-27T04:27:20.225Z,59.58
2023-05-27T04:29:23.680Z,59.75
2023-05-27T04:31:29.629Z,59.93
2023-05-27T04:33:32.385Z,60.08
2023-05-27T04:35:35.651Z,60.27
2023-05-27T04:37:38.728Z,60.54
2023-05-27T04:39:46.499Z,60.59
2023-05-27T04:41:50.562Z,60.61
2023-05-27T04:43:53.170Z,60.79
2023-05-27T04:45:57.035Z,60.62
2023-05-27T04:47:59.844Z,60.86
2023-05-27T04:50:03.882Z,60.94
2023-05-27T04:52:08.232Z,61.26
2023-05-27T04:54:10.959Z,61.41
2023-05-27T04:56:16.086Z,61.46
2023-05-27T04:58:20.131Z,61.43
2023-05-27T05:00:37.206Z,61.13
2023-05-27T05:06:03.486Z,60.80
2023-05-27T05:08:06.711Z,60.34
2023-05-27T05:10:10.753Z,59.50
2023-05-27T05:12:13.868Z,59.74
2023-05-27T05:14:17.831Z,59.63
2023-05-27T05:16:20.682Z,58.88
2023-05-27T05:18:23.401Z,58.14
2023-05-27T05:20:26.376Z,58.32
2023-05-27T05:22:29.996Z,58.48
2023-05-27T05:24:32.712Z,58.48
2023-05-27T05:26:35.286Z,58.04
2023-05-27T05:28:37.901Z,57.89
2023-05-27T05:30:41.863Z,57.55
2023-05-27T05:32:44.555Z,56.92
2023-05-27T05:34:47.321Z,56.11
2023-05-27T05:36:49.935Z,55.88
2023-05-27T05:38:52.563Z,55.96
2023-05-27T05:40:55.505Z,55.97
2023-05-27T05:43:00.451Z,55.79
2023-05-27T05:45:03.088Z,56.55
2023-05-27T05:47:07.256Z,56.29
2023-05-27T05:49:10.209Z,56.25
2023-05-27T05:51:12.989Z,56.21
2023-05-27T05:53:15.663Z,56.06
2023-05-27T05:55:18.311Z,56.29
2023-05-27T05:57:20.899Z,56.17
2023-05-27T05:59:23.542Z,56.18
2023-05-27T06:01:28.019Z,56.41
2023-05-27T06:03:32.132Z,56.35
2023-05-27T06:05:34.896Z,56.82
2023-05-27T06:07:37.634Z,56.94
2023-05-27T06:09:40.307Z,56.77
2023-05-27T06:11:42.934Z,57.50
2023-05-27T06:13:45.682Z,57.25
2023-05-27T06:15:48.339Z,56.65
2023-05-27T06:17:51.059Z,57.02
2023-05-27T06:19:55.008Z,56.79
2023-05-27T06:21:57.644Z,56.62
2023-05-27T06:24:00.782Z,56.89
2023-05-27T06:26:04.556Z,56.25
2023-05-27T06:28:07.371Z,55.74
2023-05-27T06:30:10.847Z,56.11
2023-05-27T06:32:13.472Z,55.88
2023-05-27T06:34:17.174Z,55.84
2023-05-27T06:36:21.230Z,56.00
2023-05-27T06:38:23.856Z,55.45
2023-05-27T06:40:26.583Z,56.37
2023-05-27T06:42:29.211Z,56.11
2023-05-27T06:44:31.844Z,56.28
2023-05-27T06:46:34.624Z,56.19
2023-05-27T06:48:37.390Z,56.04
2023-05-27T06:50:41.902Z,56.55
2023-05-27T06:52:45.950Z,56.60
2023-05-27T06:54:49.260Z,57.02
2023-05-27T06:56:52.138Z,56.87
2023-05-27T06:58:54.760Z,57.08
2023-05-27T07:00:57.434Z,57.12
2023-05-27T07:03:01.587Z,57.18
2023-05-27T07:05:04.689Z,57.59
2023-05-27T07:07:07.359Z,57.42
2023-05-27T07:09:12.213Z,56.76
2023-05-27T07:11:14.882Z,57.02
2023-05-27T07:13:17.488Z,56.94
2023-05-27T07:15:20.336Z,56.85
2023-05-27T07:17:23.015Z,56.63
2023-05-27T07:19:25.637Z,56.85
2023-05-27T07:21:28.378Z,57.05
2023-05-27T07:23:31.027Z,56.54
2023-05-27T07:25:35.012Z,56.46
2023-05-27T07:27:37.711Z,56.28
2023-05-27T07:29:40.313Z,55.81
2023-05-27T07:31:43.055Z,55.92
2023-05-27T07:33:45.735Z,55.76
2023-05-27T07:35:48.466Z,55.80
2023-05-27T07:37:51.066Z,56.34
2023-05-27T07:39:53.758Z,55.81
2023-05-27T07:41:57.793Z,55.70
2023-05-27T07:44:00.835Z,56.25
2023-05-27T07:46:03.555Z,55.92
2023-05-27T07:48:06.383Z,55.54
2023-05-27T07:50:10.181Z,55.37
2023-05-27T07:52:12.814Z,55.12
2023-05-27T07:54:15.442Z,55.06
2023-05-27T07:56:18.288Z,55.06
2023-05-27T07:58:22.286Z,55.54
2023-05-27T08:00:24.998Z,55.69
2023-05-27T08:02:27.663Z,56.77
2023-05-27T08:04:30.435Z,56.49
2023-05-27T08:06:33.139Z,56.34
2023-05-27T08:08:35.757Z,57.10
2023-05-27T08:10:38.356Z,57.18
2023-05-27T08:12:41.047Z,57.30
2023-05-27T08:14:45.911Z,55.78
2023-05-27T08:16:48.652Z,55.93
2023-05-27T08:18:51.638Z,56.53
2023-05-27T08:20:54.599Z,56.23
2023-05-27T08:22:57.525Z,56.64
2023-05-27T08:25:00.139Z,56.32
2023-05-27T08:27:03.689Z,56.24
2023-05-27T08:29:06.601Z,56.22
2023-05-27T08:31:11.467Z,55.58
2023-05-27T08:33:14.230Z,56.25
2023-05-27T08:35:18.148Z,55.96
2023-05-27T08:37:20.777Z,56.25
2023-05-27T08:39:23.603Z,56.19
2023-05-27T08:41:28.110Z,55.89
2023-05-27T08:43:31.529Z,55.90
2023-05-27T08:45:34.413Z,56.21
2023-05-27T08:47:40.930Z,56.10
2023-05-27T08:49:43.667Z,56.30
2023-05-27T08:51:47.528Z,56.18
2023-05-27T08:53:50.544Z,55.94
2023-05-27T08:55:56.203Z,55.87
2023-05-27T08:58:00.795Z,56.14
2023-05-27T09:00:06.239Z,55.95
2023-05-27T09:02:15.425Z,55.70
2023-05-27T09:04:19.543Z,54.85
2023-05-27T09:06:22.289Z,54.84
2023-05-27T09:08:35.145Z,55.43
2023-05-27T09:10:38.844Z,55.55
2023-05-27T09:12:45.321Z,55.99
2023-05-27T09:14:51.361Z,55.92
2023-05-27T09:16:53.964Z,56.17
2023-05-27T09:18:56.577Z,56.37
2023-05-27T09:21:01.665Z,55.68
2023-05-27T09:23:06.428Z,55.29
2023-05-27T09:25:11.458Z,55.06
2023-05-27T09:27:15.575Z,55.26
2023-05-27T09:29:20.303Z,55.99
2023-05-27T09:31:24.098Z,55.49
2023-05-27T09:33:28.218Z,55.21
2023-05-27T09:35:31.040Z,54.76
2023-05-27T09:37:37.063Z,53.94
2023-05-27T09:39:41.049Z,54.42
2023-05-27T09:41:43.935Z,54.54
2023-05-27T09:43:55.793Z,53.73
2023-05-27T09:46:01.239Z,53.33
2023-05-27T09:48:08.986Z,53.98
2023-05-27T09:50:15.242Z,54.32
2023-05-27T09:52:21.567Z,54.06
2023-05-27T09:54:26.294Z,54.03
2023-05-27T09:56:30.351Z,53.97
2023-05-27T09:58:33.135Z,52.06
2023-05-27T10:00:35.995Z,52.44
2023-05-27T10:02:39.779Z,52.39
2023-05-27T10:04:43.204Z,52.43
2023-05-27T10:06:46.830Z,52.28
2023-05-27T10:08:49.625Z,51.24
2023-05-27T10:10:54.165Z,51.52
2023-05-27T10:12:59.270Z,52.13
2023-05-27T10:15:01.958Z,52.16
2023-05-27T10:17:04.931Z,52.20
2023-05-27T10:19:12.574Z,52.57
2023-05-27T10:21:20.595Z,49.90
2023-05-27T10:23:27.524Z,50.72
2023-05-27T10:25:38.215Z,51.94
2023-05-27T10:27:46.324Z,52.36
2023-05-27T10:29:59.489Z,50.39
2023-05-27T10:32:02.288Z,51.07
2023-05-27T10:34:07.012Z,51.17
2023-05-27T10:36:10.975Z,51.23
2023-05-27T10:38:18.502Z,50.06
2023-05-27T10:40:26.391Z,49.68
2023-05-27T10:42:29.079Z,50.04
2023-05-27T10:44:35.510Z,48.13
2023-05-27T10:46:43.069Z,48.83
2023-05-27T10:48:46.331Z,48.61
2023-05-27T10:50:53.131Z,49.94
2023-05-27T10:52:55.847Z,49.16
2023-05-27T10:54:59.077Z,49.75
2023-05-27T10:57:03.843Z,49.25
2023-05-27T10:59:12.043Z,49.16
2023-05-27T11:01:16.689Z,47.92
2023-05-27T11:03:22.686Z,47.65
2023-05-27T11:05:30.613Z,48.54
2023-05-27T11:07:33.212Z,50.18
2023-05-27T11:09:45.011Z,48.11
2023-05-27T11:11:47.667Z,48.32
2023-05-27T11:13:50.351Z,48.41
2023-05-27T11:15:53.059Z,48.62
2023-05-27T11:18:02.440Z,49.21
2023-05-27T11:20:07.659Z,48.04
2023-05-27T11:22:12.377Z,47.79
2023-05-27T11:24:18.860Z,48.70
2023-05-27T11:26:23.755Z,47.76
2023-05-27T11:28:26.721Z,47.95
2023-05-27T11:30:29.865Z,47.66
2023-05-27T11:32:36.321Z,47.22
2023-05-27T11:34:40.849Z,47.43
2023-05-27T11:36:46.498Z,46.29
2023-05-27T11:38:51.543Z,46.24
2023-05-27T11:40:54.432Z,46.67
2023-05-27T11:43:02.187Z,45.74
2023-05-27T11:45:07.910Z,47.22
2023-05-27T11:47:10.560Z,45.61
2023-05-27T11:49:14.714Z,44.73
2023-05-27T11:51:18.764Z,46.17
2023-05-27T11:53:21.411Z,47.42
2023-05-27T11:55:24.233Z,46.50
2023-05-27T11:57:26.961Z,45.73
2023-05-27T11:59:29.608Z,46.43
2023-05-27T12:01:32.258Z,46.02
2023-05-27T12:03:36.067Z,45.59
2023-05-27T12:05:38.767Z,45.46
2023-05-27T12:07:42.811Z,44.65
2023-05-27T12:09:45.425Z,45.63
2023-05-27T12:11:48.095Z,45.28
2023-05-27T12:13:52.223Z,43.25
2023-05-27T12:15:54.931Z,44.46
2023-05-27T12:17:57.932Z,44.60
2023-05-27T12:20:00.623Z,45.64
2023-05-27T12:22:03.272Z,44.18
2023-05-27T12:24:07.879Z,44.64
2023-05-27T12:26:10.956Z,44.10
2023-05-27T12:28:13.546Z,43.33
2023-05-27T12:30:16.352Z,43.94
2023-05-27T12:32:19.076Z,44.11
2023-05-27T12:34:21.687Z,44.37
2023-05-27T12:36:24.256Z,43.06
2023-05-27T12:38:27.070Z,42.10
2023-05-27T12:40:31.220Z,43.90
2023-05-27T12:42:34.372Z,43.40
2023-05-27T12:44:37.012Z,42.95
2023-05-27T12:46:39.646Z,44.36
2023-05-27T12:48:42.236Z,42.63
2023-05-27T12:50:45.058Z,42.19
2023-05-27T12:52:47.909Z,42.02
2023-05-27T12:54:50.476Z,43.29
2023-05-27T12:56:54.512Z,41.89
2023-05-27T12:58:57.152Z,42.49
2023-05-27T13:00:59.882Z,40.51
2023-05-27T13:03:03.003Z,42.13
2023-05-27T13:05:07.820Z,41.94
2023-05-27T13:07:12.147Z,40.62
2023-05-27T13:09:15.115Z,40.32
2023-05-27T13:11:18.432Z,39.67
2023-05-27T13:13:23.166Z,40.63
2023-05-27T13:15:25.999Z,38.18
2023-05-27T13:17:28.968Z,38.79
2023-05-27T13:19:31.568Z,38.12
2023-05-27T13:21:34.245Z,35.62
2023-05-27T13:23:36.992Z,34.32
2023-05-27T13:25:39.660Z,33.17
2023-05-27T13:27:45.533Z,31.83
2023-05-27T13:29:49.673Z,28.53
2023-05-27T13:31:52.287Z,27.98
2023-05-27T13:33:54.890Z,25.47
2023-05-27T13:35:57.580Z,23.93
2023-05-27T13:38:01.410Z,22.66
2023-05-27T13:40:05.550Z,21.67
2023-05-27T13:42:08.451Z,21.39
2023-05-27T13:44:11.054Z,20.83
2023-05-27T13:46:15.102Z,20.30
2023-05-27T13:48:18.100Z,19.42
2023-05-27T13:50:20.858Z,18.30
2023-05-27T13:52:23.604Z,17.57
2023-05-27T13:54:26.381Z,17.42
2023-05-27T13:56:28.969Z,16.29
2023-05-27T13:58:31.602Z,17.32
2023-05-27T14:00:34.236Z,16.16
2023-05-27T14:02:38.158Z,15.69
2023-05-27T14:04:40.802Z,15.38
2023-05-27T14:06:43.443Z,15.46
2023-05-27T14:08:46.522Z,14.83
2023-05-27T14:10:49.091Z,15.27
2023-05-27T14:12:51.707Z,14.85
2023-05-27T14:14:54.351Z,15.39
2023-05-27T14:16:57.693Z,14.36
2023-05-27T14:19:01.844Z,15.91
2023-05-27T14:21:04.850Z,15.72
2023-05-27T14:23:11.730Z,15.65
2023-05-27T14:25:14.403Z,15.81
2023-05-27T14:27:17.043Z,14.92
2023-05-27T14:29:19.725Z,15.62
2023-05-27T14:31:22.423Z,15.83
2023-05-27T14:33:25.036Z,16.15
2023-05-27T14:35:28.973Z,16.06
2023-05-27T14:37:31.594Z,16.02
2023-05-27T14:39:34.200Z,16.61
2023-05-27T14:41:36.807Z,16.28
2023-05-27T14:43:39.424Z,15.62
2023-05-27T14:45:42.156Z,16.41
2023-05-27T14:47:44.777Z,16.18
2023-05-27T14:49:47.346Z,17.28
2023-05-27T14:51:51.252Z,17.21
2023-05-27T14:53:53.828Z,16.95
2023-05-27T14:55:56.590Z,17.50
2023-05-27T14:57:59.260Z,17.35
2023-05-27T15:00:01.959Z,17.58
2023-05-27T15:02:04.962Z,17.37
2023-05-27T15:04:07.785Z,19.56
2023-05-27T15:06:11.621Z,19.13
2023-05-27T15:08:17.009Z,18.97
2023-05-27T15:10:19.646Z,19.63
2023-05-27T15:12:23.306Z,19.90
2023-05-27T15:14:26.517Z,20.37
2023-05-27T15:16:29.475Z,20.31
2023-05-27T15:18:32.119Z,20.90
2023-05-27T15:20:34.778Z,21.32
2023-05-27T15:22:37.440Z,21.61
2023-05-27T15:24:41.399Z,22.15
2023-05-27T15:26:44.065Z,22.54
2023-05-27T15:28:46.656Z,22.14
2023-05-27T15:30:49.360Z,22.56
2023-05-27T15:32:52.008Z,22.95
2023-05-27T15:34:54.693Z,22.96
2023-05-27T15:36:59.413Z,23.67
2023-05-27T15:39:02.060Z,23.42
2023-05-27T15:41:06.637Z,24.10
2023-05-27T15:43:09.786Z,24.16
2023-05-27T15:45:14.265Z,23.86
2023-05-27T15:47:16.997Z,24.21
2023-05-27T15:49:19.603Z,24.04
2023-05-27T15:51:23.654Z,24.29
2023-05-27T15:53:26.894Z,23.99
2023-05-27T15:55:29.577Z,24.23
2023-05-27T15:57:33.644Z,24.67
2023-05-27T15:59:36.555Z,24.75
2023-05-27T16:01:39.433Z,25.22
2023-05-27T16:03:42.149Z,25.49
2023-05-27T16:05:44.822Z,25.29
2023-05-27T16:07:47.408Z,25.53
2023-05-27T16:09:50.009Z,25.68
2023-05-27T16:11:52.856Z,25.94
2023-05-27T16:13:56.831Z,25.86
2023-05-27T16:15:59.425Z,26.19
2023-05-27T16:18:02.239Z,26.42
2023-05-27T16:20:05.797Z,25.90
2023-05-27T16:22:08.442Z,26.24
2023-05-27T16:24:11.527Z,26.63
2023-05-27T16:26:14.871Z,27.11
2023-05-27T16:28:18.616Z,27.00
2023-05-27T16:30:22.901Z,26.95
2023-05-27T16:32:26.290Z,27.14
2023-05-27T16:34:29.702Z,27.41
2023-05-27T16:36:32.861Z,27.06
2023-05-27T16:38:35.891Z,27.21
2023-05-27T16:40:38.621Z,27.42
2023-05-27T16:42:41.328Z,27.45
2023-05-27T16:44:43.914Z,27.28
2023-05-27T16:46:47.970Z,27.94
2023-05-27T16:48:50.742Z,28.00
2023-05-27T16:50:53.352Z,27.89
2023-05-27T16:52:56.004Z,27.89
2023-05-27T16:54:59.566Z,28.36
2023-05-27T16:57:03.396Z,28.70
2023-05-27T16:59:06.035Z,28.39
2023-05-27T17:01:08.775Z,28.24
2023-05-27T17:03:12.930Z,28.64
2023-05-27T17:05:16.838Z,28.68
2023-05-27T17:07:19.639Z,29.22
2023-05-27T17:09:24.125Z,29.47
2023-05-27T17:11:27.640Z,28.83
2023-05-27T17:13:30.380Z,28.96
2023-05-27T17:15:33.131Z,28.71
2023-05-27T17:17:36.547Z,28.52
2023-05-27T17:19:40.621Z,29.65
2023-05-27T17:21:43.301Z,29.35
2023-05-27T17:23:46.134Z,29.33
2023-05-27T17:25:48.746Z,29.13
2023-05-27T17:27:51.486Z,29.72
2023-05-27T17:29:54.637Z,29.13
2023-05-27T17:31:57.458Z,29.52
2023-05-27T17:34:02.390Z,29.62
2023-05-27T17:36:07.425Z,30.22
2023-05-27T17:38:12.090Z,31.08
2023-05-27T17:40:15.072Z,31.00
2023-05-27T17:42:17.722Z,31.12
2023-05-27T17:44:20.383Z,31.42
2023-05-27T17:46:23.309Z,31.76
2023-05-27T17:48:26.184Z,32.04
2023-05-27T17:50:29.020Z,31.62
2023-05-27T17:52:33.046Z,31.99
2023-05-27T17:54:37.650Z,31.86
2023-05-27T17:56:40.388Z,32.53
2023-05-27T17:58:43.059Z,31.95
2023-05-27T18:00:46.719Z,31.53
2023-05-27T18:02:50.760Z,31.88
2023-05-27T18:04:53.828Z,31.96
2023-05-27T18:06:56.554Z,32.63
2023-05-27T18:09:00.712Z,32.63
2023-05-27T18:11:03.856Z,33.02
2023-05-27T18:13:06.776Z,32.28
2023-05-27T18:15:10.889Z,33.37
2023-05-27T18:17:16.031Z,33.27
2023-05-27T18:19:19.146Z,33.38
2023-05-27T18:21:21.824Z,33.90
2023-05-27T18:23:24.912Z,34.24
2023-05-27T18:25:28.854Z,33.81
2023-05-27T18:27:31.618Z,34.02
2023-05-27T18:29:34.909Z,34.58
2023-05-27T18:31:37.826Z,35.23
2023-05-27T18:33:40.621Z,35.52
2023-05-27T18:35:43.818Z,35.61
2023-05-27T18:37:46.765Z,36.08
2023-05-27T18:39:49.457Z,36.75
2023-05-27T18:41:53.645Z,37.37
2023-05-27T18:43:56.314Z,37.60
2023-05-27T18:46:00.654Z,37.19
2023-05-27T18:48:03.481Z,37.91
2023-05-27T18:50:08.104Z,38.87
2023-05-27T18:52:11.965Z,39.75
2023-05-27T18:54:14.575Z,40.11
2023-05-27T18:56:18.654Z,40.34
2023-05-27T18:58:22.679Z,40.56
2023-05-27T19:00:25.363Z,40.49
2023-05-27T19:02:28.140Z,40.44
2023-05-27T19:04:31.153Z,40.21
2023-05-27T19:06:34.062Z,40.15
2023-05-27T19:08:36.664Z,40.57
2023-05-27T19:10:40.877Z,41.27
2023-05-27T19:12:43.558Z,41.22
2023-05-27T19:14:47.616Z,41.56
2023-05-27T19:16:50.285Z,41.72
2023-05-27T19:18:54.375Z,42.61
2023-05-27T19:20:57.032Z,43.10
2023-05-27T19:23:02.302Z,43.31
2023-05-27T19:25:05.456Z,42.91
2023-05-27T19:27:08.161Z,43.10
2023-05-27T19:29:10.985Z,43.06
2023-05-27T19:31:14.945Z,42.49
2023-05-27T19:33:17.743Z,41.72
2023-05-27T19:35:20.366Z,43.36
2023-05-27T19:37:23.071Z,44.67
2023-05-27T19:39:25.713Z,45.20
2023-05-27T19:41:28.421Z,45.75
2023-05-27T19:43:31.048Z,45.95
2023-05-27T19:45:33.717Z,46.99
2023-05-27T19:47:37.728Z,46.72
2023-05-27T19:49:40.350Z,46.94
2023-05-27T19:51:43.005Z,47.26
2023-05-27T19:53:45.906Z,46.74
2023-05-27T19:55:48.540Z,46.80
2023-05-27T19:57:51.186Z,46.62
2023-05-27T19:59:54.376Z,46.73
2023-05-27T20:01:57.017Z,46.34
2023-05-27T20:04:01.290Z,47.09
2023-05-27T20:06:04.017Z,46.56
2023-05-27T20:08:06.624Z,46.04
2023-05-27T20:10:10.540Z,45.74
2023-05-27T20:12:13.171Z,46.06
2023-05-27T20:14:20.838Z,46.41
2023-05-27T20:16:24.333Z,46.45
2023-05-27T20:18:27.988Z,46.58
2023-05-27T20:20:37.675Z,46.69
2023-05-27T20:22:41.405Z,46.76
2023-05-27T20:24:44.135Z,47.28
2023-05-27T20:26:46.867Z,46.84
2023-05-27T20:28:49.492Z,47.28
2023-05-27T20:30:53.078Z,47.11
2023-05-27T20:32:56.387Z,47.48
2023-05-27T20:34:59.087Z,47.40
2023-05-27T20:37:03.062Z,47.29
2023-05-27T20:39:05.753Z,47.42
2023-05-27T20:41:09.650Z,47.44
2023-05-27T20:43:12.357Z,48.28
2023-05-27T20:45:16.144Z,48.13
2023-05-27T20:47:18.870Z,47.92
2023-05-27T20:49:21.537Z,48.10
2023-05-27T20:51:24.577Z,48.64
2023-05-27T20:53:28.636Z,49.26
2023-05-27T20:55:31.298Z,49.77
2023-05-27T20:57:33.894Z,50.26
2023-05-27T20:59:36.628Z,49.94
2023-05-27T21:01:40.829Z,49.91
2023-05-27T21:03:43.945Z,49.63
2023-05-27T21:05:47.564Z,49.75
2023-05-27T21:07:52.443Z,50.21
2023-05-27T21:09:56.452Z,50.01
2023-05-27T21:11:59.146Z,49.81
2023-05-27T21:14:01.847Z,50.00
2023-05-27T21:16:04.595Z,50.18
2023-05-27T21:18:10.056Z,50.18
2023-05-27T21:20:13.507Z,50.26
2023-05-27T21:22:16.537Z,50.42
2023-05-27T21:24:19.407Z,51.05
2023-05-27T21:26:23.605Z,50.62
2023-05-27T21:28:26.467Z,50.72
2023-05-27T21:30:29.106Z,50.95
2023-05-27T21:32:31.821Z,50.71
2023-05-27T21:34:34.517Z,50.23
2023-05-27T21:36:37.352Z,50.89
2023-05-27T21:38:40.141Z,50.63
2023-05-27T21:40:42.795Z,50.44
2023-05-27T21:42:46.840Z,50.43
2023-05-27T21:44:50.688Z,50.46
2023-05-27T21:46:54.001Z,50.49
2023-05-27T21:48:56.662Z,50.43
2023-05-27T21:50:59.319Z,50.26
2023-05-27T21:53:04.711Z,50.58
2023-05-27T21:55:08.175Z,50.84
2023-05-27T21:57:10.800Z,51.45
2023-05-27T21:59:14.769Z,51.47
2023-05-27T22:01:17.559Z,51.71
2023-05-27T22:03:20.363Z,50.97
2023-05-27T22:05:23.071Z,51.02
2023-05-27T22:07:25.718Z,51.60
2023-05-27T22:09:28.344Z,51.42
2023-05-27T22:11:30.979Z,51.61
2023-05-27T22:13:33.673Z,52.06
2023-05-27T22:15:37.625Z,51.93
2023-05-27T22:17:40.370Z,51.41
2023-05-27T22:19:43.912Z,51.84
2023-05-27T22:21:46.517Z,51.94
2023-05-27T22:23:49.217Z,52.02
2023-05-27T22:25:51.974Z,52.35
2023-05-27T22:27:55.646Z,52.36
2023-05-27T22:29:58.273Z,53.00
2023-05-27T22:32:02.531Z,52.61
2023-05-27T22:34:06.186Z,52.75
2023-05-27T22:36:12.023Z,53.04
2023-05-27T22:38:14.844Z,53.17
2023-05-27T22:40:19.125Z,53.19
2023-05-27T22:42:21.707Z,53.31
2023-05-27T22:44:24.386Z,53.71
2023-05-27T22:46:29.973Z,53.98
2023-05-27T22:48:34.076Z,54.23
2023-05-27T22:50:36.807Z,54.20
2023-05-27T22:52:39.622Z,54.40
2023-05-27T22:54:42.310Z,53.90
2023-05-27T22:56:45.010Z,53.78
2023-05-27T22:58:48.508Z,53.46
2023-05-27T23:00:51.326Z,53.45
2023-05-27T23:02:54.030Z,54.04
2023-05-27T23:04:58.128Z,53.90
2023-05-27T23:07:00.908Z,54.02
2023-05-27T23:09:03.699Z,53.69
2023-05-27T23:11:06.565Z,53.98
2023-05-27T23:13:09.452Z,54.15
2023-05-27T23:15:12.161Z,53.77
2023-05-27T23:17:14.874Z,53.84
2023-05-27T23:19:17.523Z,53.95
2023-05-27T23:21:21.579Z,54.22
2023-05-27T23:23:24.186Z,54.32
2023-05-27T23:25:26.981Z,53.58
2023-05-27T23:27:29.587Z,53.69
2023-05-27T23:29:32.278Z,53.93
2023-05-27T23:31:34.939Z,54.24
2023-05-27T23:33:37.569Z,54.56
2023-05-27T23:35:40.222Z,54.90
2023-05-27T23:37:44.204Z,54.97
2023-05-27T23:39:46.888Z,55.18
2023-05-27T23:41:49.622Z,54.83
2023-05-27T23:43:52.323Z,54.80
2023-05-27T23:45:55.264Z,54.88
2023-05-27T23:47:58.267Z,55.01
2023-05-27T23:50:01.029Z,55.37
2023-05-27T23:52:04.030Z,55.41
2023-05-27T23:54:08.081Z,55.52
2023-05-27T23:56:10.847Z,55.44
2023-05-27T23:58:15.393Z,56.05
